ADDS TAF Data INFO
IDs: Format: Raw Decoded Include METARs

Data at: 1028 UTC 16 Aug 2018

KDRO 160953Z AUTO 35007KT 10SM BKN090 16/12 A3029 RMK AO2 SLP161 T01560117

KDRO 160520Z 1606/1706 33003KT P6SM FEW110 BKN250
  FM161900 24007KT P6SM BKN250
  FM162300 32008KT P6SM SCT080 BKN140
  FM170200 03007KT P6SM FEW080 SCT120